sensor_id;sensor_type;location;lat;lon;timestamp;P1;durP1;ratioP1;P2;durP2;ratioP2
11829;SDS011;5972;42.134;24.718;2022-09-09T00:00:22;11.55;;;8.20;;
11829;SDS011;5972;42.134;24.718;2022-09-09T00:02:51;11.35;;;8.18;;
11829;SDS011;5972;42.134;24.718;2022-09-09T00:05:25;13.23;;;8.48;;
11829;SDS011;5972;42.134;24.718;2022-09-09T00:07:58;10.45;;;8.00;;
11829;SDS011;5972;42.134;24.718;2022-09-09T00:10:29;11.63;;;8.75;;
11829;SDS011;5972;42.134;24.718;2022-09-09T00:13:02;11.60;;;8.52;;
11829;SDS011;5972;42.134;24.718;2022-09-09T00:15:43;12.23;;;7.70;;
11829;SDS011;5972;42.134;24.718;2022-09-09T00:18:22;12.32;;;8.68;;
11829;SDS011;5972;42.134;24.718;2022-09-09T00:20:56;11.15;;;8.15;;
11829;SDS011;5972;42.134;24.718;2022-09-09T00:23:30;13.40;;;8.50;;
11829;SDS011;5972;42.134;24.718;2022-09-09T00:26:03;9.07;;;7.80;;
11829;SDS011;5972;42.134;24.718;2022-09-09T00:28:39;12.45;;;8.07;;
11829;SDS011;5972;42.134;24.718;2022-09-09T00:31:11;9.68;;;7.43;;
11829;SDS011;5972;42.134;24.718;2022-09-09T00:33:40;8.93;;;7.85;;
11829;SDS011;5972;42.134;24.718;2022-09-09T00:36:09;9.57;;;8.00;;
11829;SDS011;5972;42.134;24.718;2022-09-09T00:38:42;8.82;;;7.93;;
11829;SDS011;5972;42.134;24.718;2022-09-09T00:41:13;9.45;;;7.55;;
11829;SDS011;5972;42.134;24.718;2022-09-09T00:43:50;14.15;;;7.88;;
11829;SDS011;5972;42.134;24.718;2022-09-09T00:46:27;12.25;;;7.60;;
11829;SDS011;5972;42.134;24.718;2022-09-09T00:49:15;13.98;;;7.90;;
11829;SDS011;5972;42.134;24.718;2022-09-09T00:51:51;10.35;;;7.78;;
11829;SDS011;5972;42.134;24.718;2022-09-09T00:54:30;12.20;;;8.20;;
11829;SDS011;5972;42.134;24.718;2022-09-09T00:57:07;12.48;;;8.40;;
11829;SDS011;5972;42.134;24.718;2022-09-09T00:59:44;11.95;;;8.60;;
11829;SDS011;5972;42.134;24.718;2022-09-09T01:02:16;9.18;;;8.27;;
11829;SDS011;5972;42.134;24.718;2022-09-09T01:04:53;12.73;;;8.20;;
11829;SDS011;5972;42.134;24.718;2022-09-09T01:07:20;11.88;;;8.02;;
11829;SDS011;5972;42.134;24.718;2022-09-09T01:09:51;10.30;;;8.23;;
11829;SDS011;5972;42.134;24.718;2022-09-09T01:12:25;11.50;;;8.20;;
11829;SDS011;5972;42.134;24.718;2022-09-09T01:15:04;13.00;;;8.68;;
11829;SDS011;5972;42.134;24.718;2022-09-09T01:17:38;9.05;;;8.10;;
11829;SDS011;5972;42.134;24.718;2022-09-09T01:20:16;10.25;;;8.57;;
11829;SDS011;5972;42.134;24.718;2022-09-09T01:22:50;8.48;;;7.68;;
11829;SDS011;5972;42.134;24.718;2022-09-09T01:25:30;13.98;;;7.57;;
11829;SDS011;5972;42.134;24.718;2022-09-09T01:28:19;11.65;;;8.55;;
11829;SDS011;5972;42.134;24.718;2022-09-09T01:30:48;11.07;;;7.75;;
11829;SDS011;5972;42.134;24.718;2022-09-09T01:33:16;12.85;;;8.10;;
11829;SDS011;5972;42.134;24.718;2022-09-09T01:35:45;11.48;;;8.82;;
11829;SDS011;5972;42.134;24.718;2022-09-09T01:38:16;18.65;;;8.63;;
11829;SDS011;5972;42.134;24.718;2022-09-09T01:40:44;16.13;;;8.60;;
11829;SDS011;5972;42.134;24.718;2022-09-09T01:43:11;12.63;;;8.35;;
11829;SDS011;5972;42.134;24.718;2022-09-09T01:45:40;10.77;;;7.70;;
11829;SDS011;5972;42.134;24.718;2022-09-09T01:48:08;11.13;;;8.38;;
11829;SDS011;5972;42.134;24.718;2022-09-09T01:50:35;15.65;;;9.02;;
11829;SDS011;5972;42.134;24.718;2022-09-09T01:53:02;11.70;;;8.93;;
11829;SDS011;5972;42.134;24.718;2022-09-09T01:55:30;10.57;;;8.23;;
11829;SDS011;5972;42.134;24.718;2022-09-09T01:58:10;10.18;;;8.25;;
11829;SDS011;5972;42.134;24.718;2022-09-09T02:00:51;12.82;;;8.40;;
11829;SDS011;5972;42.134;24.718;2022-09-09T02:03:28;10.02;;;8.70;;
11829;SDS011;5972;42.134;24.718;2022-09-09T02:06:03;10.52;;;8.57;;
11829;SDS011;5972;42.134;24.718;2022-09-09T02:08:42;11.27;;;8.23;;
11829;SDS011;5972;42.134;24.718;2022-09-09T02:11:13;11.45;;;8.15;;
11829;SDS011;5972;42.134;24.718;2022-09-09T02:13:41;10.07;;;7.82;;
11829;SDS011;5972;42.134;24.718;2022-09-09T02:16:12;9.25;;;8.20;;
11829;SDS011;5972;42.134;24.718;2022-09-09T02:18:47;16.17;;;8.20;;
11829;SDS011;5972;42.134;24.718;2022-09-09T02:21:18;9.68;;;7.93;;
11829;SDS011;5972;42.134;24.718;2022-09-09T02:23:46;9.55;;;7.93;;
11829;SDS011;5972;42.134;24.718;2022-09-09T02:26:17;10.90;;;7.70;;
11829;SDS011;5972;42.134;24.718;2022-09-09T02:28:47;11.52;;;7.78;;
11829;SDS011;5972;42.134;24.718;2022-09-09T02:31:17;14.70;;;8.27;;
11829;SDS011;5972;42.134;24.718;2022-09-09T02:33:48;13.52;;;7.50;;
11829;SDS011;5972;42.134;24.718;2022-09-09T02:36:18;10.90;;;7.88;;
11829;SDS011;5972;42.134;24.718;2022-09-09T02:38:48;11.73;;;7.82;;
11829;SDS011;5972;42.134;24.718;2022-09-09T02:41:18;8.65;;;7.78;;
11829;SDS011;5972;42.134;24.718;2022-09-09T02:43:47;8.70;;;7.55;;
11829;SDS011;5972;42.134;24.718;2022-09-09T02:46:21;10.48;;;7.75;;
11829;SDS011;5972;42.134;24.718;2022-09-09T02:48:59;8.70;;;7.90;;
11829;SDS011;5972;42.134;24.718;2022-09-09T02:51:30;11.02;;;8.38;;
11829;SDS011;5972;42.134;24.718;2022-09-09T02:54:08;11.35;;;8.50;;
11829;SDS011;5972;42.134;24.718;2022-09-09T02:56:43;10.57;;;8.15;;
11829;SDS011;5972;42.134;24.718;2022-09-09T02:59:16;8.82;;;8.07;;
11829;SDS011;5972;42.134;24.718;2022-09-09T03:01:44;12.35;;;8.85;;
11829;SDS011;5972;42.134;24.718;2022-09-09T03:04:12;11.85;;;7.90;;
11829;SDS011;5972;42.134;24.718;2022-09-09T03:06:39;14.63;;;8.48;;
11829;SDS011;5972;42.134;24.718;2022-09-09T03:09:05;12.30;;;8.50;;
11829;SDS011;5972;42.134;24.718;2022-09-09T03:11:35;11.52;;;7.88;;
11829;SDS011;5972;42.134;24.718;2022-09-09T03:14:03;16.05;;;8.68;;
11829;SDS011;5972;42.134;24.718;2022-09-09T03:16:30;9.60;;;8.45;;
11829;SDS011;5972;42.134;24.718;2022-09-09T03:18:59;13.18;;;8.88;;
11829;SDS011;5972;42.134;24.718;2022-09-09T03:21:26;15.50;;;8.75;;
11829;SDS011;5972;42.134;24.718;2022-09-09T03:23:53;10.05;;;8.45;;
11829;SDS011;5972;42.134;24.718;2022-09-09T03:26:20;10.18;;;8.50;;
11829;SDS011;5972;42.134;24.718;2022-09-09T03:28:48;17.20;;;8.63;;
11829;SDS011;5972;42.134;24.718;2022-09-09T03:31:16;17.08;;;8.80;;
11829;SDS011;5972;42.134;24.718;2022-09-09T03:33:44;19.77;;;9.00;;
11829;SDS011;5972;42.134;24.718;2022-09-09T03:36:12;13.73;;;9.23;;
11829;SDS011;5972;42.134;24.718;2022-09-09T03:38:40;17.85;;;9.57;;
11829;SDS011;5972;42.134;24.718;2022-09-09T03:41:06;15.30;;;9.18;;
11829;SDS011;5972;42.134;24.718;2022-09-09T03:43:34;10.82;;;9.00;;
11829;SDS011;5972;42.134;24.718;2022-09-09T03:46:01;15.60;;;9.05;;
11829;SDS011;5972;42.134;24.718;2022-09-09T03:48:28;16.42;;;9.73;;
11829;SDS011;5972;42.134;24.718;2022-09-09T03:50:55;15.60;;;9.18;;
11829;SDS011;5972;42.134;24.718;2022-09-09T03:53:27;14.85;;;9.05;;
11829;SDS011;5972;42.134;24.718;2022-09-09T03:55:55;17.10;;;9.27;;
11829;SDS011;5972;42.134;24.718;2022-09-09T03:58:25;11.45;;;9.18;;
11829;SDS011;5972;42.134;24.718;2022-09-09T04:00:53;12.80;;;9.25;;
11829;SDS011;5972;42.134;24.718;2022-09-09T04:03:21;11.88;;;9.20;;
11829;SDS011;5972;42.134;24.718;2022-09-09T04:05:50;14.02;;;9.25;;
11829;SDS011;5972;42.134;24.718;2022-09-09T04:08:17;10.77;;;9.60;;
11829;SDS011;5972;42.134;24.718;2022-09-09T04:10:46;12.35;;;9.45;;
11829;SDS011;5972;42.134;24.718;2022-09-09T04:13:13;13.63;;;9.65;;
11829;SDS011;5972;42.134;24.718;2022-09-09T04:15:42;12.23;;;9.00;;
11829;SDS011;5972;42.134;24.718;2022-09-09T04:18:11;11.02;;;8.85;;
11829;SDS011;5972;42.134;24.718;2022-09-09T04:20:38;14.43;;;9.23;;
11829;SDS011;5972;42.134;24.718;2022-09-09T04:23:05;13.00;;;9.20;;
11829;SDS011;5972;42.134;24.718;2022-09-09T04:25:32;13.57;;;9.05;;
11829;SDS011;5972;42.134;24.718;2022-09-09T04:28:00;15.25;;;8.50;;
11829;SDS011;5972;42.134;24.718;2022-09-09T04:30:27;12.50;;;8.05;;
11829;SDS011;5972;42.134;24.718;2022-09-09T04:32:54;17.10;;;8.63;;
11829;SDS011;5972;42.134;24.718;2022-09-09T04:35:22;15.85;;;8.93;;
11829;SDS011;5972;42.134;24.718;2022-09-09T04:37:49;10.23;;;8.02;;
11829;SDS011;5972;42.134;24.718;2022-09-09T04:40:17;16.77;;;8.48;;
11829;SDS011;5972;42.134;24.718;2022-09-09T04:42:44;10.18;;;8.40;;
11829;SDS011;5972;42.134;24.718;2022-09-09T04:45:14;19.05;;;8.77;;
11829;SDS011;5972;42.134;24.718;2022-09-09T04:47:41;19.00;;;8.63;;
11829;SDS011;5972;42.134;24.718;2022-09-09T04:50:08;13.93;;;8.55;;
11829;SDS011;5972;42.134;24.718;2022-09-09T04:52:35;12.38;;;7.72;;
11829;SDS011;5972;42.134;24.718;2022-09-09T04:55:02;17.55;;;8.20;;
11829;SDS011;5972;42.134;24.718;2022-09-09T04:57:30;12.23;;;7.10;;
11829;SDS011;5972;42.134;24.718;2022-09-09T04:59:58;9.50;;;7.00;;
11829;SDS011;5972;42.134;24.718;2022-09-09T05:02:26;14.95;;;8.00;;
11829;SDS011;5972;42.134;24.718;2022-09-09T05:04:53;11.15;;;7.32;;
11829;SDS011;5972;42.134;24.718;2022-09-09T05:07:20;17.67;;;7.30;;
11829;SDS011;5972;42.134;24.718;2022-09-09T05:09:47;19.55;;;7.40;;
11829;SDS011;5972;42.134;24.718;2022-09-09T05:12:14;15.25;;;6.90;;
11829;SDS011;5972;42.134;24.718;2022-09-09T05:14:41;19.30;;;6.75;;
11829;SDS011;5972;42.134;24.718;2022-09-09T05:17:08;12.63;;;6.40;;
11829;SDS011;5972;42.134;24.718;2022-09-09T05:19:37;12.23;;;5.68;;
11829;SDS011;5972;42.134;24.718;2022-09-09T05:22:04;21.80;;;6.03;;
11829;SDS011;5972;42.134;24.718;2022-09-09T05:24:31;15.13;;;5.57;;
11829;SDS011;5972;42.134;24.718;2022-09-09T05:26:58;19.10;;;6.65;;
11829;SDS011;5972;42.134;24.718;2022-09-09T05:29:27;13.60;;;5.72;;
11829;SDS011;5972;42.134;24.718;2022-09-09T05:31:54;13.30;;;6.07;;
11829;SDS011;5972;42.134;24.718;2022-09-09T05:34:21;16.50;;;6.55;;
11829;SDS011;5972;42.134;24.718;2022-09-09T05:36:49;9.65;;;5.45;;
11829;SDS011;5972;42.134;24.718;2022-09-09T05:39:17;14.15;;;5.65;;
11829;SDS011;5972;42.134;24.718;2022-09-09T05:41:44;5.88;;;5.38;;
11829;SDS011;5972;42.134;24.718;2022-09-09T05:44:11;7.07;;;5.05;;
11829;SDS011;5972;42.134;24.718;2022-09-09T05:46:38;9.20;;;4.85;;
11829;SDS011;5972;42.134;24.718;2022-09-09T05:49:05;6.40;;;4.60;;
11829;SDS011;5972;42.134;24.718;2022-09-09T05:51:33;10.35;;;4.97;;
11829;SDS011;5972;42.134;24.718;2022-09-09T05:54:01;9.20;;;4.70;;
11829;SDS011;5972;42.134;24.718;2022-09-09T05:56:28;8.68;;;4.70;;
11829;SDS011;5972;42.134;24.718;2022-09-09T05:58:56;8.68;;;4.88;;
11829;SDS011;5972;42.134;24.718;2022-09-09T06:01:23;11.10;;;5.03;;
11829;SDS011;5972;42.134;24.718;2022-09-09T06:03:52;12.63;;;4.95;;
11829;SDS011;5972;42.134;24.718;2022-09-09T06:06:19;6.05;;;4.78;;
11829;SDS011;5972;42.134;24.718;2022-09-09T06:08:49;8.75;;;5.22;;
11829;SDS011;5972;42.134;24.718;2022-09-09T06:11:19;10.88;;;5.35;;
11829;SDS011;5972;42.134;24.718;2022-09-09T06:13:47;7.93;;;5.43;;
11829;SDS011;5972;42.134;24.718;2022-09-09T06:16:17;16.92;;;6.15;;
11829;SDS011;5972;42.134;24.718;2022-09-09T06:18:48;12.93;;;5.35;;
11829;SDS011;5972;42.134;24.718;2022-09-09T06:21:16;11.05;;;5.45;;
11829;SDS011;5972;42.134;24.718;2022-09-09T06:23:44;9.15;;;5.10;;
11829;SDS011;5972;42.134;24.718;2022-09-09T06:26:13;10.13;;;5.20;;
11829;SDS011;5972;42.134;24.718;2022-09-09T06:28:43;9.38;;;5.18;;
11829;SDS011;5972;42.134;24.718;2022-09-09T06:31:11;6.20;;;4.88;;
11829;SDS011;5972;42.134;24.718;2022-09-09T06:33:40;7.10;;;4.57;;
11829;SDS011;5972;42.134;24.718;2022-09-09T06:36:10;7.38;;;4.72;;
11829;SDS011;5972;42.134;24.718;2022-09-09T06:38:38;12.30;;;4.57;;
11829;SDS011;5972;42.134;24.718;2022-09-09T06:41:05;6.28;;;4.72;;
11829;SDS011;5972;42.134;24.718;2022-09-09T06:43:37;9.65;;;4.63;;
11829;SDS011;5972;42.134;24.718;2022-09-09T06:46:12;12.00;;;5.10;;
11829;SDS011;5972;42.134;24.718;2022-09-09T06:48:41;8.32;;;4.70;;
11829;SDS011;5972;42.134;24.718;2022-09-09T06:51:10;7.55;;;4.72;;
11829;SDS011;5972;42.134;24.718;2022-09-09T06:53:39;13.07;;;4.88;;
11829;SDS011;5972;42.134;24.718;2022-09-09T06:56:17;12.43;;;5.75;;
11829;SDS011;5972;42.134;24.718;2022-09-09T06:58:46;9.25;;;5.57;;
11829;SDS011;5972;42.134;24.718;2022-09-09T07:01:16;10.82;;;5.03;;
11829;SDS011;5972;42.134;24.718;2022-09-09T07:03:45;11.20;;;5.20;;
11829;SDS011;5972;42.134;24.718;2022-09-09T07:06:14;9.80;;;4.90;;
11829;SDS011;5972;42.134;24.718;2022-09-09T07:08:43;5.30;;;4.75;;
11829;SDS011;5972;42.134;24.718;2022-09-09T07:11:10;8.32;;;5.32;;
11829;SDS011;5972;42.134;24.718;2022-09-09T07:13:37;6.68;;;5.15;;
11829;SDS011;5972;42.134;24.718;2022-09-09T07:16:04;10.07;;;5.03;;
11829;SDS011;5972;42.134;24.718;2022-09-09T07:18:33;12.55;;;5.68;;
11829;SDS011;5972;42.134;24.718;2022-09-09T07:21:00;12.77;;;5.22;;
11829;SDS011;5972;42.134;24.718;2022-09-09T07:23:28;10.68;;;5.20;;
11829;SDS011;5972;42.134;24.718;2022-09-09T07:25:55;11.70;;;4.85;;
11829;SDS011;5972;42.134;24.718;2022-09-09T07:28:23;13.90;;;4.75;;
11829;SDS011;5972;42.134;24.718;2022-09-09T07:30:54;7.50;;;5.03;;
11829;SDS011;5972;42.134;24.718;2022-09-09T07:33:22;8.18;;;4.45;;
11829;SDS011;5972;42.134;24.718;2022-09-09T07:35:50;6.97;;;4.50;;
11829;SDS011;5972;42.134;24.718;2022-09-09T07:38:18;9.82;;;4.55;;
11829;SDS011;5972;42.134;24.718;2022-09-09T07:40:46;8.50;;;4.28;;
11829;SDS011;5972;42.134;24.718;2022-09-09T07:43:13;6.65;;;4.43;;
11829;SDS011;5972;42.134;24.718;2022-09-09T07:45:44;11.60;;;4.18;;
11829;SDS011;5972;42.134;24.718;2022-09-09T07:48:10;7.38;;;4.25;;
11829;SDS011;5972;42.134;24.718;2022-09-09T07:50:37;5.35;;;3.83;;
11829;SDS011;5972;42.134;24.718;2022-09-09T07:53:06;8.07;;;4.22;;
11829;SDS011;5972;42.134;24.718;2022-09-09T07:55:32;7.70;;;4.13;;
11829;SDS011;5972;42.134;24.718;2022-09-09T07:57:59;8.75;;;3.92;;
11829;SDS011;5972;42.134;24.718;2022-09-09T08:00:26;7.03;;;4.07;;
11829;SDS011;5972;42.134;24.718;2022-09-09T08:02:53;15.07;;;3.83;;
11829;SDS011;5972;42.134;24.718;2022-09-09T08:05:20;12.68;;;4.15;;
11829;SDS011;5972;42.134;24.718;2022-09-09T08:07:48;8.02;;;3.67;;
11829;SDS011;5972;42.134;24.718;2022-09-09T08:10:16;11.75;;;3.85;;
11829;SDS011;5972;42.134;24.718;2022-09-09T08:12:43;11.95;;;4.20;;
11829;SDS011;5972;42.134;24.718;2022-09-09T08:15:10;6.93;;;4.18;;
11829;SDS011;5972;42.134;24.718;2022-09-09T08:17:37;10.23;;;4.30;;
11829;SDS011;5972;42.134;24.718;2022-09-09T08:20:04;11.18;;;4.00;;
11829;SDS011;5972;42.134;24.718;2022-09-09T08:22:32;10.82;;;4.07;;
11829;SDS011;5972;42.134;24.718;2022-09-09T08:24:59;6.43;;;3.70;;
11829;SDS011;5972;42.134;24.718;2022-09-09T08:27:28;12.20;;;4.05;;
11829;SDS011;5972;42.134;24.718;2022-09-09T08:29:57;5.88;;;3.58;;
11829;SDS011;5972;42.134;24.718;2022-09-09T08:32:24;7.53;;;3.67;;
11829;SDS011;5972;42.134;24.718;2022-09-09T08:34:51;4.88;;;3.85;;
11829;SDS011;5972;42.134;24.718;2022-09-09T08:37:18;5.70;;;3.88;;
11829;SDS011;5972;42.134;24.718;2022-09-09T08:39:45;8.00;;;3.47;;
11829;SDS011;5972;42.134;24.718;2022-09-09T08:42:17;5.53;;;3.88;;
11829;SDS011;5972;42.134;24.718;2022-09-09T08:45:23;5.90;;;3.80;;
11829;SDS011;5972;42.134;24.718;2022-09-09T08:48:07;7.25;;;4.05;;
11829;SDS011;5972;42.134;24.718;2022-09-09T08:50:40;4.85;;;3.85;;
11829;SDS011;5972;42.134;24.718;2022-09-09T08:53:10;6.78;;;3.75;;
11829;SDS011;5972;42.134;24.718;2022-09-09T08:55:42;6.05;;;3.85;;
11829;SDS011;5972;42.134;24.718;2022-09-09T08:58:14;6.40;;;3.97;;
11829;SDS011;5972;42.134;24.718;2022-09-09T09:00:47;7.60;;;4.15;;
11829;SDS011;5972;42.134;24.718;2022-09-09T09:03:27;8.85;;;4.05;;
11829;SDS011;5972;42.134;24.718;2022-09-09T09:06:13;8.57;;;4.35;;
11829;SDS011;5972;42.134;24.718;2022-09-09T09:09:02;7.97;;;4.13;;
11829;SDS011;5972;42.134;24.718;2022-09-09T09:11:35;9.25;;;4.20;;
11829;SDS011;5972;42.134;24.718;2022-09-09T09:14:07;6.57;;;4.30;;
11829;SDS011;5972;42.134;24.718;2022-09-09T09:16:43;8.05;;;4.38;;
11829;SDS011;5972;42.134;24.718;2022-09-09T09:19:17;11.25;;;4.43;;
11829;SDS011;5972;42.134;24.718;2022-09-09T09:21:48;6.88;;;4.10;;
11829;SDS011;5972;42.134;24.718;2022-09-09T09:24:22;8.43;;;4.45;;
11829;SDS011;5972;42.134;24.718;2022-09-09T09:26:57;9.55;;;4.65;;
11829;SDS011;5972;42.134;24.718;2022-09-09T09:29:30;7.70;;;4.63;;
11829;SDS011;5972;42.134;24.718;2022-09-09T09:31:59;9.85;;;4.88;;
11829;SDS011;5972;42.134;24.718;2022-09-09T09:34:29;6.88;;;4.82;;
11829;SDS011;5972;42.134;24.718;2022-09-09T09:36:56;7.55;;;5.05;;
11829;SDS011;5972;42.134;24.718;2022-09-09T09:39:27;5.65;;;4.55;;
11829;SDS011;5972;42.134;24.718;2022-09-09T09:41:55;10.52;;;5.50;;
11829;SDS011;5972;42.134;24.718;2022-09-09T09:44:27;11.70;;;5.03;;
11829;SDS011;5972;42.134;24.718;2022-09-09T09:47:06;6.45;;;5.00;;
11829;SDS011;5972;42.134;24.718;2022-09-09T09:49:34;5.63;;;5.03;;
11829;SDS011;5972;42.134;24.718;2022-09-09T09:52:02;6.60;;;4.90;;
11829;SDS011;5972;42.134;24.718;2022-09-09T09:54:30;9.60;;;5.05;;
11829;SDS011;5972;42.134;24.718;2022-09-09T09:57:07;6.43;;;5.13;;
11829;SDS011;5972;42.134;24.718;2022-09-09T09:59:35;9.85;;;4.95;;
11829;SDS011;5972;42.134;24.718;2022-09-09T10:02:15;10.18;;;4.95;;
11829;SDS011;5972;42.134;24.718;2022-09-09T10:04:59;8.25;;;5.18;;
11829;SDS011;5972;42.134;24.718;2022-09-09T10:07:27;7.18;;;5.50;;
11829;SDS011;5972;42.134;24.718;2022-09-09T10:09:55;12.32;;;4.97;;
11829;SDS011;5972;42.134;24.718;2022-09-09T10:12:26;5.20;;;4.70;;
11829;SDS011;5972;42.134;24.718;2022-09-09T10:15:05;6.63;;;4.90;;
11829;SDS011;5972;42.134;24.718;2022-09-09T10:17:47;10.75;;;5.45;;
11829;SDS011;5972;42.134;24.718;2022-09-09T10:20:28;5.88;;;5.28;;
11829;SDS011;5972;42.134;24.718;2022-09-09T10:23:02;10.07;;;5.47;;
11829;SDS011;5972;42.134;24.718;2022-09-09T10:25:41;10.32;;;5.22;;
11829;SDS011;5972;42.134;24.718;2022-09-09T10:28:28;11.27;;;5.22;;
11829;SDS011;5972;42.134;24.718;2022-09-09T10:31:09;10.55;;;5.20;;
11829;SDS011;5972;42.134;24.718;2022-09-09T10:33:47;13.23;;;5.55;;
11829;SDS011;5972;42.134;24.718;2022-09-09T10:36:19;8.38;;;5.55;;
11829;SDS011;5972;42.134;24.718;2022-09-09T10:38:48;9.00;;;5.28;;
11829;SDS011;5972;42.134;24.718;2022-09-09T10:41:26;8.45;;;5.20;;
11829;SDS011;5972;42.134;24.718;2022-09-09T10:44:13;8.80;;;5.47;;
11829;SDS011;5972;42.134;24.718;2022-09-09T10:46:58;7.05;;;5.05;;
11829;SDS011;5972;42.134;24.718;2022-09-09T10:49:46;7.78;;;5.22;;
11829;SDS011;5972;42.134;24.718;2022-09-09T10:52:26;5.93;;;5.30;;
11829;SDS011;5972;42.134;24.718;2022-09-09T10:54:59;7.72;;;5.30;;
11829;SDS011;5972;42.134;24.718;2022-09-09T10:57:33;16.50;;;5.90;;
11829;SDS011;5972;42.134;24.718;2022-09-09T11:00:06;8.32;;;5.20;;
11829;SDS011;5972;42.134;24.718;2022-09-09T11:02:42;9.00;;;5.50;;
11829;SDS011;5972;42.134;24.718;2022-09-09T11:05:14;9.05;;;5.43;;
11829;SDS011;5972;42.134;24.718;2022-09-09T11:07:46;15.75;;;6.22;;
11829;SDS011;5972;42.134;24.718;2022-09-09T11:10:20;6.35;;;5.47;;
11829;SDS011;5972;42.134;24.718;2022-09-09T11:12:51;8.68;;;5.65;;
11829;SDS011;5972;42.134;24.718;2022-09-09T11:15:26;8.25;;;5.40;;
11829;SDS011;5972;42.134;24.718;2022-09-09T11:17:58;9.40;;;5.43;;
11829;SDS011;5972;42.134;24.718;2022-09-09T11:20:29;13.23;;;6.05;;
11829;SDS011;5972;42.134;24.718;2022-09-09T11:22:58;7.13;;;5.60;;
11829;SDS011;5972;42.134;24.718;2022-09-09T11:25:29;13.30;;;5.45;;
11829;SDS011;5972;42.134;24.718;2022-09-09T11:28:10;7.63;;;5.13;;
11829;SDS011;5972;42.134;24.718;2022-09-09T11:30:54;8.40;;;4.90;;
11829;SDS011;5972;42.134;24.718;2022-09-09T11:36:41;10.90;;;5.00;;
11829;SDS011;5972;42.134;24.718;2022-09-09T11:39:30;7.65;;;5.07;;
11829;SDS011;5972;42.134;24.718;2022-09-09T11:42:15;7.68;;;4.82;;
11829;SDS011;5972;42.134;24.718;2022-09-09T11:44:43;5.15;;;4.65;;
11829;SDS011;5972;42.134;24.718;2022-09-09T11:47:16;11.27;;;5.13;;
11829;SDS011;5972;42.134;24.718;2022-09-09T11:49:49;8.60;;;5.18;;
11829;SDS011;5972;42.134;24.718;2022-09-09T11:52:22;5.35;;;4.80;;
11829;SDS011;5972;42.134;24.718;2022-09-09T11:54:51;8.95;;;5.03;;
11829;SDS011;5972;42.134;24.718;2022-09-09T11:57:23;8.50;;;5.20;;
11829;SDS011;5972;42.134;24.718;2022-09-09T11:59:53;6.53;;;4.82;;
11829;SDS011;5972;42.134;24.718;2022-09-09T12:02:22;5.40;;;4.90;;
11829;SDS011;5972;42.134;24.718;2022-09-09T12:04:54;6.20;;;4.95;;
11829;SDS011;5972;42.134;24.718;2022-09-09T12:07:31;7.40;;;4.90;;
11829;SDS011;5972;42.134;24.718;2022-09-09T12:10:03;8.95;;;5.50;;
11829;SDS011;5972;42.134;24.718;2022-09-09T12:12:44;6.38;;;4.93;;
11829;SDS011;5972;42.134;24.718;2022-09-09T12:15:18;6.70;;;4.68;;
11829;SDS011;5972;42.134;24.718;2022-09-09T12:17:54;10.05;;;4.78;;
11829;SDS011;5972;42.134;24.718;2022-09-09T12:20:22;5.68;;;5.00;;
11829;SDS011;5972;42.134;24.718;2022-09-09T12:23:01;6.75;;;4.88;;
11829;SDS011;5972;42.134;24.718;2022-09-09T12:25:54;10.13;;;5.20;;
11829;SDS011;5972;42.134;24.718;2022-09-09T12:28:33;8.40;;;4.20;;
11829;SDS011;5972;42.134;24.718;2022-09-09T12:31:10;9.77;;;4.90;;
11829;SDS011;5972;42.134;24.718;2022-09-09T12:33:43;8.13;;;4.88;;
11829;SDS011;5972;42.134;24.718;2022-09-09T12:36:14;7.45;;;4.88;;
11829;SDS011;5972;42.134;24.718;2022-09-09T12:38:45;7.47;;;4.97;;
11829;SDS011;5972;42.134;24.718;2022-09-09T12:41:18;5.63;;;5.03;;
11829;SDS011;5972;42.134;24.718;2022-09-09T12:43:46;5.30;;;4.80;;
11829;SDS011;5972;42.134;24.718;2022-09-09T12:46:16;6.60;;;5.28;;
11829;SDS011;5972;42.134;24.718;2022-09-09T12:48:51;7.15;;;4.90;;
11829;SDS011;5972;42.134;24.718;2022-09-09T12:51:21;8.85;;;4.80;;
11829;SDS011;5972;42.134;24.718;2022-09-09T12:53:54;5.55;;;5.03;;
11829;SDS011;5972;42.134;24.718;2022-09-09T12:56:23;9.68;;;4.82;;
11829;SDS011;5972;42.134;24.718;2022-09-09T12:58:53;9.38;;;4.70;;
11829;SDS011;5972;42.134;24.718;2022-09-09T13:01:23;11.02;;;4.72;;
11829;SDS011;5972;42.134;24.718;2022-09-09T13:03:51;6.07;;;5.20;;
11829;SDS011;5972;42.134;24.718;2022-09-09T13:06:20;10.38;;;4.90;;
11829;SDS011;5972;42.134;24.718;2022-09-09T13:08:56;10.43;;;5.07;;
11829;SDS011;5972;42.134;24.718;2022-09-09T13:11:27;5.57;;;5.07;;
11829;SDS011;5972;42.134;24.718;2022-09-09T13:13:57;11.63;;;4.85;;
11829;SDS011;5972;42.134;24.718;2022-09-09T13:16:25;7.72;;;4.78;;
11829;SDS011;5972;42.134;24.718;2022-09-09T13:18:57;11.98;;;4.82;;
11829;SDS011;5972;42.134;24.718;2022-09-09T13:21:31;9.35;;;4.85;;
11829;SDS011;5972;42.134;24.718;2022-09-09T13:24:01;9.75;;;5.25;;
11829;SDS011;5972;42.134;24.718;2022-09-09T13:26:29;8.68;;;5.00;;
11829;SDS011;5972;42.134;24.718;2022-09-09T13:29:07;9.23;;;5.20;;
11829;SDS011;5972;42.134;24.718;2022-09-09T13:31:42;7.40;;;5.32;;
11829;SDS011;5972;42.134;24.718;2022-09-09T13:34:10;7.55;;;4.72;;
11829;SDS011;5972;42.134;24.718;2022-09-09T13:36:39;10.25;;;5.35;;
11829;SDS011;5972;42.134;24.718;2022-09-09T13:39:14;8.88;;;5.22;;
11829;SDS011;5972;42.134;24.718;2022-09-09T13:41:43;9.27;;;4.93;;
11829;SDS011;5972;42.134;24.718;2022-09-09T13:44:17;8.52;;;5.20;;
11829;SDS011;5972;42.134;24.718;2022-09-09T13:46:58;9.73;;;5.38;;
11829;SDS011;5972;42.134;24.718;2022-09-09T13:49:27;9.10;;;4.90;;
11829;SDS011;5972;42.134;24.718;2022-09-09T13:52:03;7.47;;;5.20;;
11829;SDS011;5972;42.134;24.718;2022-09-09T13:54:33;7.38;;;5.28;;
11829;SDS011;5972;42.134;24.718;2022-09-09T13:57:00;7.72;;;5.30;;
11829;SDS011;5972;42.134;24.718;2022-09-09T13:59:27;10.93;;;5.50;;
11829;SDS011;5972;42.134;24.718;2022-09-09T14:01:54;12.23;;;5.63;;
11829;SDS011;5972;42.134;24.718;2022-09-09T14:04:21;12.68;;;5.40;;
11829;SDS011;5972;42.134;24.718;2022-09-09T14:06:48;13.05;;;6.13;;
11829;SDS011;5972;42.134;24.718;2022-09-09T14:09:16;9.57;;;6.20;;
11829;SDS011;5972;42.134;24.718;2022-09-09T14:11:46;14.30;;;6.60;;
11829;SDS011;5972;42.134;24.718;2022-09-09T14:14:13;11.52;;;6.30;;
11829;SDS011;5972;42.134;24.718;2022-09-09T14:16:40;9.75;;;6.15;;
11829;SDS011;5972;42.134;24.718;2022-09-09T14:19:07;14.80;;;5.50;;
11829;SDS011;5972;42.134;24.718;2022-09-09T14:21:34;18.30;;;6.10;;
11829;SDS011;5972;42.134;24.718;2022-09-09T14:24:01;10.68;;;5.97;;
11829;SDS011;5972;42.134;24.718;2022-09-09T14:26:28;10.57;;;5.75;;
11829;SDS011;5972;42.134;24.718;2022-09-09T14:28:57;11.77;;;5.60;;
11829;SDS011;5972;42.134;24.718;2022-09-09T14:31:24;10.95;;;6.50;;
11829;SDS011;5972;42.134;24.718;2022-09-09T14:33:51;11.73;;;6.05;;
11829;SDS011;5972;42.134;24.718;2022-09-09T14:36:19;13.75;;;6.05;;
11829;SDS011;5972;42.134;24.718;2022-09-09T14:38:45;8.90;;;5.45;;
11829;SDS011;5972;42.134;24.718;2022-09-09T14:41:13;11.77;;;6.10;;
11829;SDS011;5972;42.134;24.718;2022-09-09T14:43:43;13.63;;;6.07;;
11829;SDS011;5972;42.134;24.718;2022-09-09T14:46:12;11.68;;;5.78;;
11829;SDS011;5972;42.134;24.718;2022-09-09T14:48:39;9.43;;;5.95;;
11829;SDS011;5972;42.134;24.718;2022-09-09T14:51:07;12.05;;;6.05;;
11829;SDS011;5972;42.134;24.718;2022-09-09T14:53:35;9.23;;;5.85;;
11829;SDS011;5972;42.134;24.718;2022-09-09T14:56:03;13.02;;;5.50;;
11829;SDS011;5972;42.134;24.718;2022-09-09T14:58:31;15.20;;;6.10;;
11829;SDS011;5972;42.134;24.718;2022-09-09T15:01:01;9.90;;;5.82;;
11829;SDS011;5972;42.134;24.718;2022-09-09T15:03:31;7.43;;;5.88;;
11829;SDS011;5972;42.134;24.718;2022-09-09T15:05:58;13.82;;;5.93;;